createdAt,value
2023-05-20T00:04:19.991Z,11.01
2023-05-20T00:09:21.782Z,10.97
2023-05-20T00:14:23.537Z,10.93
2023-05-20T00:19:25.696Z,10.97
2023-05-20T00:24:27.928Z,10.97
2023-05-20T00:29:29.634Z,10.94
2023-05-20T00:34:31.686Z,10.85
2023-05-20T00:39:33.449Z,10.79
2023-05-20T00:44:35.189Z,10.82
2023-05-20T00:49:36.927Z,10.82
2023-05-20T00:54:41.098Z,10.78
2023-05-20T00:59:44.750Z,10.71
2023-05-20T01:04:47.430Z,10.67
2023-05-20T01:09:49.533Z,10.73
2023-05-20T01:15:00.372Z,10.77
2023-05-20T01:20:04.186Z,10.76
2023-05-20T01:25:06.449Z,10.76
2023-05-20T01:30:08.963Z,10.74
2023-05-20T01:35:15.375Z,10.74
2023-05-20T01:40:18.958Z,10.71
2023-05-20T01:45:21.369Z,10.67
2023-05-20T01:50:23.194Z,10.62
2023-05-20T01:55:24.939Z,10.61
2023-05-20T02:00:26.856Z,10.62
2023-05-20T02:05:28.617Z,10.62
2023-05-20T02:10:30.900Z,10.61
2023-05-20T02:15:32.821Z,10.61
2023-05-20T02:20:38.287Z,10.62
2023-05-20T02:25:41.028Z,10.63
2023-05-20T02:30:45.562Z,10.62
2023-05-20T02:35:47.283Z,10.61
2023-05-20T02:40:49.268Z,10.59
2023-05-20T02:45:51.677Z,10.59
2023-05-20T02:50:53.394Z,10.61
2023-05-20T02:55:55.632Z,10.62
2023-05-20T03:00:57.838Z,10.64
2023-05-20T03:06:00.686Z,10.60
2023-05-20T03:11:03.385Z,10.57
2023-05-20T03:16:06.819Z,10.54
2023-05-20T03:21:09.070Z,10.55
2023-05-20T03:26:11.334Z,10.55
2023-05-20T03:31:13.363Z,10.57
2023-05-20T03:36:15.634Z,10.60
2023-05-20T03:41:17.549Z,10.60
2023-05-20T03:46:19.954Z,10.59
2023-05-20T03:51:21.892Z,10.54
2023-05-20T03:56:24.752Z,10.55
2023-05-20T04:01:26.504Z,10.55
2023-05-20T04:06:28.416Z,10.54
2023-05-20T04:11:31.051Z,10.52
2023-05-20T04:16:32.931Z,10.58
2023-05-20T04:21:34.795Z,10.66
2023-05-20T04:26:37.412Z,10.76
2023-05-20T04:31:39.324Z,10.81
2023-05-20T04:36:43.631Z,10.91
2023-05-20T04:41:45.810Z,11.01
2023-05-20T04:46:47.593Z,11.02
2023-05-20T04:51:50.128Z,11.08
2023-05-20T04:56:53.686Z,11.18
2023-05-20T05:01:56.057Z,11.30
2023-05-20T05:06:58.175Z,11.41
2023-05-20T05:11:59.961Z,11.48
2023-05-20T05:17:01.796Z,11.56
2023-05-20T05:22:04.050Z,11.72
2023-05-20T05:27:06.112Z,11.90
2023-05-20T05:32:08.269Z,12.10
2023-05-20T05:37:10.151Z,12.24
2023-05-20T05:42:12.633Z,12.34
2023-05-20T05:47:15.134Z,12.46
2023-05-20T05:52:17.231Z,12.56
2023-05-20T05:57:19.118Z,12.71
2023-05-20T06:02:22.649Z,12.83
2023-05-20T06:07:24.777Z,12.98
2023-05-20T06:12:27.035Z,13.04
2023-05-20T06:17:28.901Z,13.12
2023-05-20T06:22:31.002Z,13.19
2023-05-20T06:27:32.782Z,13.33
2023-05-20T06:32:34.825Z,13.50
2023-05-20T06:37:37.099Z,13.59
2023-05-20T06:42:39.275Z,13.58
2023-05-20T06:47:41.196Z,13.68
2023-05-20T06:52:43.876Z,13.71
2023-05-20T06:57:46.366Z,13.71
2023-05-20T07:02:49.244Z,13.69
2023-05-20T07:07:51.309Z,13.73
2023-05-20T07:12:53.367Z,13.82
2023-05-20T07:17:55.929Z,14.00
2023-05-20T07:22:57.901Z,14.30
2023-05-20T07:28:07.075Z,14.69
2023-05-20T07:33:09.671Z,14.98
2023-05-20T07:38:12.884Z,15.18
2023-05-20T07:43:16.000Z,15.34
2023-05-20T07:48:18.124Z,15.60
2023-05-20T07:53:20.195Z,15.70
2023-05-20T07:58:22.770Z,15.74
2023-05-20T08:03:26.971Z,15.75
2023-05-20T08:08:55.041Z,16.09
2023-05-20T08:14:02.230Z,16.37
2023-05-20T08:19:06.243Z,16.51
2023-05-20T08:24:08.292Z,16.72
2023-05-20T08:29:10.714Z,16.86
2023-05-20T08:34:12.598Z,17.05
2023-05-20T08:39:15.291Z,17.30
2023-05-20T08:44:19.270Z,17.67
2023-05-20T08:49:22.040Z,18.13
2023-05-20T08:54:26.754Z,18.35
2023-05-20T08:59:28.906Z,18.82
2023-05-20T09:04:30.917Z,19.09
2023-05-20T09:09:34.328Z,19.37
2023-05-20T09:14:36.048Z,19.77
2023-05-20T09:19:37.892Z,20.01
2023-05-20T09:24:41.309Z,19.96
2023-05-20T09:29:43.800Z,19.66
2023-05-20T09:34:47.525Z,19.63
2023-05-20T09:40:00.384Z,19.56
2023-05-20T09:45:04.346Z,19.65
2023-05-20T09:50:10.337Z,19.69
2023-05-20T09:55:12.349Z,20.06
2023-05-20T10:00:17.603Z,20.33
2023-05-20T10:05:27.653Z,20.26
2023-05-20T10:10:48.498Z,20.34
2023-05-20T10:16:24.565Z,20.35
2023-05-20T10:21:26.610Z,20.39
2023-05-20T10:26:36.668Z,20.25
2023-05-20T10:31:45.736Z,20.31
2023-05-20T10:36:58.648Z,20.34
2023-05-20T10:42:07.574Z,20.52
2023-05-20T10:47:24.462Z,20.60
2023-05-20T10:52:27.995Z,20.56
2023-05-20T10:57:29.798Z,20.54
2023-05-20T11:02:33.135Z,20.84
2023-05-20T11:07:34.896Z,20.99
2023-05-20T11:12:36.667Z,20.55
2023-05-20T11:17:38.487Z,20.30
2023-05-20T11:22:40.514Z,20.22
2023-05-20T11:27:43.398Z,20.22
2023-05-20T11:32:56.389Z,20.08
2023-05-20T11:38:07.792Z,20.00
2023-05-20T11:43:11.579Z,20.03
2023-05-20T11:48:15.641Z,20.11
2023-05-20T11:53:21.091Z,20.15
2023-05-20T11:58:29.878Z,20.40
2023-05-20T12:03:33.120Z,20.25
2023-05-20T12:08:35.324Z,20.14
2023-05-20T12:13:37.544Z,20.16
2023-05-20T12:18:39.331Z,20.02
2023-05-20T12:23:41.422Z,19.92
2023-05-20T12:28:43.470Z,20.09
2023-05-20T12:33:45.767Z,20.23
2023-05-20T12:38:48.169Z,20.60
2023-05-20T12:43:49.900Z,20.91
2023-05-20T12:48:51.678Z,20.94
2023-05-20T12:53:53.423Z,20.87
2023-05-20T12:58:55.214Z,21.04
2023-05-20T13:03:57.076Z,21.10
2023-05-20T13:08:58.781Z,21.07
2023-05-20T13:14:00.684Z,21.15
2023-05-20T13:19:02.448Z,21.25
2023-05-20T13:24:04.529Z,21.38
2023-05-20T13:29:06.243Z,21.61
2023-05-20T13:34:08.298Z,21.89
2023-05-20T13:39:10.813Z,21.99
2023-05-20T13:44:12.507Z,22.03
2023-05-20T13:49:14.544Z,21.95
2023-05-20T13:54:16.421Z,22.00
2023-05-20T13:59:18.405Z,21.99
2023-05-20T14:04:20.161Z,22.08
2023-05-20T14:09:21.963Z,22.23
2023-05-20T14:14:23.684Z,22.42
2023-05-20T14:19:26.988Z,22.62
2023-05-20T14:24:29.345Z,22.65
2023-05-20T14:29:31.356Z,22.64
2023-05-20T14:34:33.148Z,22.75
2023-05-20T14:39:38.457Z,22.94
2023-05-20T14:44:40.395Z,23.08
2023-05-20T14:49:44.621Z,23.29
2023-05-20T14:54:46.417Z,23.43
2023-05-20T14:59:50.226Z,23.42
2023-05-20T15:04:52.116Z,23.44
2023-05-20T15:09:53.826Z,23.51
2023-05-20T15:14:55.804Z,23.68
2023-05-20T15:19:57.536Z,23.73
2023-05-20T15:24:59.470Z,23.74
2023-05-20T15:30:01.369Z,23.75
2023-05-20T15:35:04.316Z,23.78
2023-05-20T15:40:07.284Z,23.79
2023-05-20T15:45:10.071Z,23.99
2023-05-20T15:50:12.312Z,24.18
2023-05-20T15:55:14.363Z,24.27
2023-05-20T16:00:19.370Z,24.33
2023-05-20T16:05:24.666Z,24.34
2023-05-20T16:10:32.423Z,24.39
2023-05-20T16:15:36.697Z,24.35
2023-05-20T16:20:38.486Z,24.12
2023-05-20T16:25:40.231Z,23.69
2023-05-20T16:30:41.935Z,23.29
2023-05-20T16:35:43.835Z,23.04
2023-05-20T16:40:45.592Z,22.87
2023-05-20T16:45:47.341Z,22.66
2023-05-20T16:50:49.179Z,22.47
2023-05-20T16:55:51.928Z,22.25
2023-05-20T17:00:55.291Z,22.06
2023-05-20T17:05:57.229Z,21.83
2023-05-20T17:11:00.229Z,21.61
2023-05-20T17:16:02.317Z,21.40
2023-05-20T17:21:04.199Z,21.21
2023-05-20T17:26:06.235Z,21.00
2023-05-20T17:31:09.730Z,20.81
2023-05-20T17:36:13.795Z,20.66
2023-05-20T17:41:17.862Z,20.57
2023-05-20T17:46:19.669Z,20.54
2023-05-20T17:51:21.530Z,20.45
2023-05-20T17:56:23.429Z,20.37
2023-05-20T18:01:25.127Z,20.24
2023-05-20T18:06:27.003Z,20.09
2023-05-20T18:11:28.809Z,19.93
2023-05-20T18:16:31.124Z,19.77
2023-05-20T18:21:33.050Z,19.61
2023-05-20T18:26:35.018Z,19.43
2023-05-20T18:31:37.124Z,19.21
2023-05-20T18:36:39.024Z,18.99
2023-05-20T18:46:47.602Z,18.54
2023-05-20T18:51:49.330Z,18.36
2023-05-20T18:56:51.312Z,18.21
2023-05-20T19:01:53.279Z,18.10
2023-05-20T19:06:55.046Z,17.98
2023-05-20T19:11:59.085Z,17.85
2023-05-20T19:17:01.225Z,17.77
2023-05-20T19:22:03.057Z,17.73
2023-05-20T19:27:05.784Z,17.70
2023-05-20T19:32:08.119Z,17.67
2023-05-20T19:37:10.690Z,17.59
2023-05-20T19:42:12.440Z,17.49
2023-05-20T19:47:14.715Z,17.39
2023-05-20T19:52:16.575Z,17.28
2023-05-20T19:57:18.371Z,17.15
2023-05-20T20:02:20.644Z,17.00
2023-05-20T20:07:23.945Z,16.86
2023-05-20T20:12:26.599Z,16.78
2023-05-20T20:17:28.326Z,16.70
2023-05-20T20:22:30.029Z,16.70
2023-05-20T20:27:33.622Z,16.67
2023-05-20T20:32:37.802Z,16.65
2023-05-20T20:37:40.515Z,16.59
2023-05-20T20:42:45.156Z,16.49
2023-05-20T20:47:50.994Z,16.39
2023-05-20T20:52:52.850Z,16.31
2023-05-20T20:57:56.732Z,16.19
2023-05-20T21:02:58.518Z,16.06
2023-05-20T21:08:03.316Z,15.94
2023-05-20T21:13:11.261Z,15.85
2023-05-20T21:18:14.043Z,15.73
2023-05-20T21:23:15.854Z,15.58
2023-05-20T21:28:17.690Z,15.45
2023-05-20T21:33:20.667Z,15.32
2023-05-20T21:38:27.036Z,15.24
2023-05-20T21:43:30.718Z,15.21
2023-05-20T21:48:34.237Z,15.18
2023-05-20T21:53:35.974Z,15.16
2023-05-20T21:58:41.249Z,15.15
2023-05-20T22:03:48.788Z,15.10
2023-05-20T22:08:52.164Z,15.01
2023-05-20T22:13:54.700Z,14.89
2023-05-20T22:18:57.236Z,14.82
2023-05-20T22:23:59.267Z,14.78
2023-05-20T22:29:01.571Z,14.75
2023-05-20T22:34:04.591Z,14.72
2023-05-20T22:39:07.172Z,14.69
2023-05-20T22:44:09.095Z,14.69
2023-05-20T22:49:13.010Z,14.70
2023-05-20T22:54:14.892Z,14.73
2023-05-20T22:59:16.873Z,14.78
2023-05-20T23:04:19.317Z,14.83
2023-05-20T23:09:21.783Z,14.85
2023-05-20T23:14:36.819Z,14.88
2023-05-20T23:19:38.553Z,14.89
2023-05-20T23:24:40.279Z,14.93
2023-05-20T23:29:42.371Z,14.94
2023-05-20T23:34:46.487Z,14.94
2023-05-20T23:39:49.270Z,14.92
2023-05-20T23:44:51.048Z,14.88
2023-05-20T23:50:13.832Z,14.83
2023-05-20T23:55:18.275Z,14.79
